sensor_id;sensor_type;location;lat;lon;timestamp;P1;durP1;ratioP1;P2;durP2;ratioP2
23868;SDS011;12115;47.128;15.422;2022-09-28T00:01:16;3.17;;;1.13;;
23868;SDS011;12115;47.128;15.422;2022-09-28T00:03:48;3.20;;;1.08;;
23868;SDS011;12115;47.128;15.422;2022-09-28T00:06:17;1.15;;;1.00;;
23868;SDS011;12115;47.128;15.422;2022-09-28T00:08:46;3.92;;;1.20;;
23868;SDS011;12115;47.128;15.422;2022-09-28T00:11:16;1.10;;;0.80;;
23868;SDS011;12115;47.128;15.422;2022-09-28T00:13:44;1.75;;;0.73;;
23868;SDS011;12115;47.128;15.422;2022-09-28T00:16:17;4.95;;;0.95;;
23868;SDS011;12115;47.128;15.422;2022-09-28T00:18:46;0.73;;;0.70;;
23868;SDS011;12115;47.128;15.422;2022-09-28T00:21:17;6.07;;;0.70;;
23868;SDS011;12115;47.128;15.422;2022-09-28T00:23:49;6.03;;;0.93;;
23868;SDS011;12115;47.128;15.422;2022-09-28T00:26:53;5.53;;;0.70;;
23868;SDS011;12115;47.128;15.422;2022-09-28T00:29:25;1.95;;;0.60;;
23868;SDS011;12115;47.128;15.422;2022-09-28T00:31:55;3.05;;;0.73;;
23868;SDS011;12115;47.128;15.422;2022-09-28T00:34:28;1.67;;;1.45;;
23868;SDS011;12115;47.128;15.422;2022-09-28T00:36:57;6.85;;;0.98;;
23868;SDS011;12115;47.128;15.422;2022-09-28T00:39:25;5.20;;;0.90;;
23868;SDS011;12115;47.128;15.422;2022-09-28T00:41:53;0.85;;;0.70;;
23868;SDS011;12115;47.128;15.422;2022-09-28T00:52:59;2.08;;;0.80;;
23868;SDS011;12115;47.128;15.422;2022-09-28T00:55:51;2.33;;;0.68;;
23868;SDS011;12115;47.128;15.422;2022-09-28T00:58:33;1.90;;;1.67;;
23868;SDS011;12115;47.128;15.422;2022-09-28T01:01:03;2.47;;;1.70;;
23868;SDS011;12115;47.128;15.422;2022-09-28T01:03:31;1.55;;;1.38;;
23868;SDS011;12115;47.128;15.422;2022-09-28T01:06:00;4.63;;;1.95;;
23868;SDS011;12115;47.128;15.422;2022-09-28T01:08:30;2.85;;;1.10;;
23868;SDS011;12115;47.128;15.422;2022-09-28T01:10:59;3.92;;;0.90;;
23868;SDS011;12115;47.128;15.422;2022-09-28T01:13:27;1.50;;;0.90;;
23868;SDS011;12115;47.128;15.422;2022-09-28T01:24:45;2.40;;;0.88;;
23868;SDS011;12115;47.128;15.422;2022-09-28T01:29:47;1.20;;;0.60;;
23868;SDS011;12115;47.128;15.422;2022-09-28T01:35:40;1.77;;;0.60;;
23868;SDS011;12115;47.128;15.422;2022-09-28T01:38:20;1.90;;;0.77;;
23868;SDS011;12115;47.128;15.422;2022-09-28T01:40:51;2.13;;;0.60;;
23868;SDS011;12115;47.128;15.422;2022-09-28T01:43:21;1.70;;;0.65;;
23868;SDS011;12115;47.128;15.422;2022-09-28T01:46:06;3.53;;;1.10;;
23868;SDS011;12115;47.128;15.422;2022-09-28T01:48:38;6.07;;;0.75;;
23868;SDS011;12115;47.128;15.422;2022-09-28T01:54:07;1.27;;;0.73;;
23868;SDS011;12115;47.128;15.422;2022-09-28T01:56:49;1.25;;;0.50;;
23868;SDS011;12115;47.128;15.422;2022-09-28T01:59:24;2.00;;;0.40;;
23868;SDS011;12115;47.128;15.422;2022-09-28T02:02:05;2.30;;;0.35;;
23868;SDS011;12115;47.128;15.422;2022-09-28T02:04:39;1.60;;;0.60;;
23868;SDS011;12115;47.128;15.422;2022-09-28T02:07:14;0.60;;;0.60;;
23868;SDS011;12115;47.128;15.422;2022-09-28T02:09:54;2.05;;;0.70;;
23868;SDS011;12115;47.128;15.422;2022-09-28T02:12:45;2.47;;;0.63;;
23868;SDS011;12115;47.128;15.422;2022-09-28T02:15:19;2.22;;;0.60;;
23868;SDS011;12115;47.128;15.422;2022-09-28T02:17:50;2.10;;;0.60;;
23868;SDS011;12115;47.128;15.422;2022-09-28T02:20:17;0.77;;;0.45;;
23868;SDS011;12115;47.128;15.422;2022-09-28T02:22:52;1.10;;;0.52;;
23868;SDS011;12115;47.128;15.422;2022-09-28T02:25:46;2.00;;;0.80;;
23868;SDS011;12115;47.128;15.422;2022-09-28T02:28:12;2.88;;;0.60;;
23868;SDS011;12115;47.128;15.422;2022-09-28T02:30:40;1.67;;;0.50;;
23868;SDS011;12115;47.128;15.422;2022-09-28T02:35:46;3.42;;;0.68;;
23868;SDS011;12115;47.128;15.422;2022-09-28T02:38:15;3.60;;;0.50;;
23868;SDS011;12115;47.128;15.422;2022-09-28T02:40:44;3.65;;;0.65;;
23868;SDS011;12115;47.128;15.422;2022-09-28T02:43:24;6.72;;;0.70;;
23868;SDS011;12115;47.128;15.422;2022-09-28T02:49:40;0.55;;;0.50;;
23868;SDS011;12115;47.128;15.422;2022-09-28T02:54:45;3.25;;;0.70;;
23868;SDS011;12115;47.128;15.422;2022-09-28T03:08:28;1.45;;;0.55;;
23868;SDS011;12115;47.128;15.422;2022-09-28T03:11:03;0.85;;;0.50;;
23868;SDS011;12115;47.128;15.422;2022-09-28T03:13:34;4.35;;;0.88;;
23868;SDS011;12115;47.128;15.422;2022-09-28T03:16:13;2.45;;;0.70;;
23868;SDS011;12115;47.128;15.422;2022-09-28T03:18:43;0.80;;;0.47;;
23868;SDS011;12115;47.128;15.422;2022-09-28T03:21:11;2.28;;;0.88;;
23868;SDS011;12115;47.128;15.422;2022-09-28T03:23:40;3.40;;;0.80;;
23868;SDS011;12115;47.128;15.422;2022-09-28T03:26:11;3.28;;;0.77;;
23868;SDS011;12115;47.128;15.422;2022-09-28T03:28:39;2.75;;;0.75;;
23868;SDS011;12115;47.128;15.422;2022-09-28T03:31:12;1.85;;;0.75;;
23868;SDS011;12115;47.128;15.422;2022-09-28T03:33:39;3.25;;;1.02;;
23868;SDS011;12115;47.128;15.422;2022-09-28T03:36:06;3.70;;;0.90;;
23868;SDS011;12115;47.128;15.422;2022-09-28T03:38:35;2.08;;;0.73;;
23868;SDS011;12115;47.128;15.422;2022-09-28T03:41:03;6.43;;;0.88;;
23868;SDS011;12115;47.128;15.422;2022-09-28T03:43:33;1.00;;;0.70;;
23868;SDS011;12115;47.128;15.422;2022-09-28T03:46:02;3.75;;;0.80;;
23868;SDS011;12115;47.128;15.422;2022-09-28T03:48:34;1.63;;;0.80;;
23868;SDS011;12115;47.128;15.422;2022-09-28T03:51:03;1.92;;;0.73;;
23868;SDS011;12115;47.128;15.422;2022-09-28T03:53:32;2.75;;;1.30;;
23868;SDS011;12115;47.128;15.422;2022-09-28T03:56:07;5.57;;;1.40;;
23868;SDS011;12115;47.128;15.422;2022-09-28T03:58:38;4.40;;;2.15;;
23868;SDS011;12115;47.128;15.422;2022-09-28T04:01:07;2.15;;;1.58;;
23868;SDS011;12115;47.128;15.422;2022-09-28T04:03:44;3.45;;;1.90;;
23868;SDS011;12115;47.128;15.422;2022-09-28T04:06:12;5.07;;;1.70;;
23868;SDS011;12115;47.128;15.422;2022-09-28T04:08:39;1.83;;;1.45;;
23868;SDS011;12115;47.128;15.422;2022-09-28T04:11:08;3.13;;;1.20;;
23868;SDS011;12115;47.128;15.422;2022-09-28T04:13:35;1.40;;;1.00;;
23868;SDS011;12115;47.128;15.422;2022-09-28T04:16:05;3.17;;;1.20;;
23868;SDS011;12115;47.128;15.422;2022-09-28T04:18:33;1.85;;;1.10;;
23868;SDS011;12115;47.128;15.422;2022-09-28T04:21:14;3.38;;;0.70;;
23868;SDS011;12115;47.128;15.422;2022-09-28T04:23:46;0.82;;;0.60;;
23868;SDS011;12115;47.128;15.422;2022-09-28T04:26:19;2.75;;;0.50;;
23868;SDS011;12115;47.128;15.422;2022-09-28T04:28:51;5.97;;;0.70;;
23868;SDS011;12115;47.128;15.422;2022-09-28T04:34:14;1.25;;;0.60;;
23868;SDS011;12115;47.128;15.422;2022-09-28T04:36:46;3.17;;;0.50;;
23868;SDS011;12115;47.128;15.422;2022-09-28T04:39:14;0.80;;;0.50;;
23868;SDS011;12115;47.128;15.422;2022-09-28T04:41:46;1.75;;;0.50;;
23868;SDS011;12115;47.128;15.422;2022-09-28T04:44:14;3.33;;;0.63;;
23868;SDS011;12115;47.128;15.422;2022-09-28T04:46:43;0.80;;;0.63;;
23868;SDS011;12115;47.128;15.422;2022-09-28T04:49:33;0.70;;;0.50;;
23868;SDS011;12115;47.128;15.422;2022-09-28T04:52:05;3.53;;;0.70;;
23868;SDS011;12115;47.128;15.422;2022-09-28T04:54:33;1.15;;;0.50;;
23868;SDS011;12115;47.128;15.422;2022-09-28T04:57:00;5.05;;;0.80;;
23868;SDS011;12115;47.128;15.422;2022-09-28T04:59:29;4.60;;;0.57;;
23868;SDS011;12115;47.128;15.422;2022-09-28T05:01:56;0.82;;;0.50;;
23868;SDS011;12115;47.128;15.422;2022-09-28T05:04:42;1.85;;;0.63;;
23868;SDS011;12115;47.128;15.422;2022-09-28T05:07:27;0.60;;;0.60;;
23868;SDS011;12115;47.128;15.422;2022-09-28T05:09:56;0.75;;;0.60;;
23868;SDS011;12115;47.128;15.422;2022-09-28T05:12:23;1.15;;;0.50;;
23868;SDS011;12115;47.128;15.422;2022-09-28T05:14:50;3.40;;;0.50;;
23868;SDS011;12115;47.128;15.422;2022-09-28T05:17:17;1.15;;;0.50;;
23868;SDS011;12115;47.128;15.422;2022-09-28T05:19:57;0.63;;;0.60;;
23868;SDS011;12115;47.128;15.422;2022-09-28T05:22:24;4.32;;;0.73;;
23868;SDS011;12115;47.128;15.422;2022-09-28T05:24:53;0.55;;;0.50;;
23868;SDS011;12115;47.128;15.422;2022-09-28T05:27:22;1.13;;;0.47;;
23868;SDS011;12115;47.128;15.422;2022-09-28T05:29:58;1.00;;;0.50;;
23868;SDS011;12115;47.128;15.422;2022-09-28T05:32:28;0.93;;;0.50;;
23868;SDS011;12115;47.128;15.422;2022-09-28T05:35:16;3.08;;;0.82;;
23868;SDS011;12115;47.128;15.422;2022-09-28T05:37:45;2.47;;;0.70;;
23868;SDS011;12115;47.128;15.422;2022-09-28T05:40:12;3.78;;;1.45;;
23868;SDS011;12115;47.128;15.422;2022-09-28T05:42:40;5.45;;;1.17;;
23868;SDS011;12115;47.128;15.422;2022-09-28T05:45:08;5.05;;;1.70;;
23868;SDS011;12115;47.128;15.422;2022-09-28T05:47:41;3.30;;;1.80;;
23868;SDS011;12115;47.128;15.422;2022-09-28T05:50:14;5.25;;;2.03;;
23868;SDS011;12115;47.128;15.422;2022-09-28T05:52:41;6.93;;;2.05;;
23868;SDS011;12115;47.128;15.422;2022-09-28T05:55:09;7.28;;;2.50;;
23868;SDS011;12115;47.128;15.422;2022-09-28T05:57:37;2.13;;;1.88;;
23868;SDS011;12115;47.128;15.422;2022-09-28T06:00:05;6.40;;;2.78;;
23868;SDS011;12115;47.128;15.422;2022-09-28T06:02:58;3.05;;;1.90;;
23868;SDS011;12115;47.128;15.422;2022-09-28T06:05:34;3.00;;;1.90;;
23868;SDS011;12115;47.128;15.422;2022-09-28T06:08:03;5.07;;;2.40;;
23868;SDS011;12115;47.128;15.422;2022-09-28T06:10:32;6.82;;;3.00;;
23868;SDS011;12115;47.128;15.422;2022-09-28T06:13:00;7.90;;;2.70;;
23868;SDS011;12115;47.128;15.422;2022-09-28T06:15:28;8.70;;;2.97;;
23868;SDS011;12115;47.128;15.422;2022-09-28T06:20:38;6.13;;;1.88;;
23868;SDS011;12115;47.128;15.422;2022-09-28T06:23:13;7.35;;;2.30;;
23868;SDS011;12115;47.128;15.422;2022-09-28T06:25:40;8.25;;;3.28;;
23868;SDS011;12115;47.128;15.422;2022-09-28T06:28:11;8.02;;;2.75;;
23868;SDS011;12115;47.128;15.422;2022-09-28T06:30:40;7.40;;;3.63;;
23868;SDS011;12115;47.128;15.422;2022-09-28T06:33:11;7.70;;;4.72;;
23868;SDS011;12115;47.128;15.422;2022-09-28T06:35:40;4.82;;;2.55;;
23868;SDS011;12115;47.128;15.422;2022-09-28T06:38:08;3.33;;;1.60;;
23868;SDS011;12115;47.128;15.422;2022-09-28T06:40:35;2.10;;;1.17;;
23868;SDS011;12115;47.128;15.422;2022-09-28T06:43:08;3.38;;;1.20;;
23868;SDS011;12115;47.128;15.422;2022-09-28T06:45:56;2.05;;;1.00;;
23868;SDS011;12115;47.128;15.422;2022-09-28T06:48:34;1.10;;;1.00;;
23868;SDS011;12115;47.128;15.422;2022-09-28T06:51:02;3.63;;;1.95;;
23868;SDS011;12115;47.128;15.422;2022-09-28T06:53:32;2.83;;;1.77;;
23868;SDS011;12115;47.128;15.422;2022-09-28T06:56:07;5.47;;;2.00;;
23868;SDS011;12115;47.128;15.422;2022-09-28T06:58:35;5.70;;;2.03;;
23868;SDS011;12115;47.128;15.422;2022-09-28T07:01:02;7.30;;;2.70;;
23868;SDS011;12115;47.128;15.422;2022-09-28T07:03:45;10.25;;;2.30;;
23868;SDS011;12115;47.128;15.422;2022-09-28T07:06:42;3.78;;;1.67;;
23868;SDS011;12115;47.128;15.422;2022-09-28T07:09:31;3.92;;;1.67;;
23868;SDS011;12115;47.128;15.422;2022-09-28T07:12:18;2.45;;;1.42;;
23868;SDS011;12115;47.128;15.422;2022-09-28T07:14:58;3.60;;;1.77;;
23868;SDS011;12115;47.128;15.422;2022-09-28T07:17:30;5.28;;;1.75;;
23868;SDS011;12115;47.128;15.422;2022-09-28T07:20:20;4.60;;;2.13;;
23868;SDS011;12115;47.128;15.422;2022-09-28T07:22:54;2.47;;;1.60;;
23868;SDS011;12115;47.128;15.422;2022-09-28T07:28:29;5.43;;;1.70;;
23868;SDS011;12115;47.128;15.422;2022-09-28T07:31:18;4.30;;;1.63;;
23868;SDS011;12115;47.128;15.422;2022-09-28T07:33:54;8.40;;;2.03;;
23868;SDS011;12115;47.128;15.422;2022-09-28T07:36:34;7.03;;;1.90;;
23868;SDS011;12115;47.128;15.422;2022-09-28T07:39:02;5.72;;;2.05;;
23868;SDS011;12115;47.128;15.422;2022-09-28T07:41:29;7.90;;;2.35;;
23868;SDS011;12115;47.128;15.422;2022-09-28T07:44:01;1.92;;;1.33;;
23868;SDS011;12115;47.128;15.422;2022-09-28T07:46:34;4.63;;;1.80;;
23868;SDS011;12115;47.128;15.422;2022-09-28T07:49:26;6.45;;;1.50;;
23868;SDS011;12115;47.128;15.422;2022-09-28T07:52:11;3.95;;;1.58;;
23868;SDS011;12115;47.128;15.422;2022-09-28T07:54:58;3.80;;;1.58;;
23868;SDS011;12115;47.128;15.422;2022-09-28T07:57:53;5.57;;;1.45;;
23868;SDS011;12115;47.128;15.422;2022-09-28T08:00:37;3.47;;;1.30;;
23868;SDS011;12115;47.128;15.422;2022-09-28T08:03:04;5.78;;;1.50;;
23868;SDS011;12115;47.128;15.422;2022-09-28T08:05:32;3.95;;;1.10;;
23868;SDS011;12115;47.128;15.422;2022-09-28T08:08:01;1.50;;;0.90;;
23868;SDS011;12115;47.128;15.422;2022-09-28T08:10:28;2.53;;;0.90;;
23868;SDS011;12115;47.128;15.422;2022-09-28T08:13:21;2.75;;;1.25;;
23868;SDS011;12115;47.128;15.422;2022-09-28T08:16:12;3.28;;;1.10;;
23868;SDS011;12115;47.128;15.422;2022-09-28T08:18:49;4.60;;;0.80;;
23868;SDS011;12115;47.128;15.422;2022-09-28T08:21:16;2.95;;;0.90;;
23868;SDS011;12115;47.128;15.422;2022-09-28T08:24:02;1.10;;;0.80;;
23868;SDS011;12115;47.128;15.422;2022-09-28T08:26:29;5.47;;;0.90;;
23868;SDS011;12115;47.128;15.422;2022-09-28T08:28:56;2.55;;;0.88;;
23868;SDS011;12115;47.128;15.422;2022-09-28T08:31:56;2.03;;;1.10;;
23868;SDS011;12115;47.128;15.422;2022-09-28T08:34:36;1.92;;;0.80;;
23868;SDS011;12115;47.128;15.422;2022-09-28T08:37:37;1.65;;;1.05;;
23868;SDS011;12115;47.128;15.422;2022-09-28T08:40:23;2.28;;;1.27;;
23868;SDS011;12115;47.128;15.422;2022-09-28T08:46:25;2.58;;;1.08;;
23868;SDS011;12115;47.128;15.422;2022-09-28T08:49:33;1.55;;;1.00;;
23868;SDS011;12115;47.128;15.422;2022-09-28T08:52:29;2.13;;;0.75;;
23868;SDS011;12115;47.128;15.422;2022-09-28T08:55:36;5.00;;;0.98;;
23868;SDS011;12115;47.128;15.422;2022-09-28T09:03:28;2.10;;;0.75;;
23868;SDS011;12115;47.128;15.422;2022-09-28T09:06:18;5.18;;;0.90;;
23868;SDS011;12115;47.128;15.422;2022-09-28T09:09:13;2.63;;;0.88;;
23868;SDS011;12115;47.128;15.422;2022-09-28T09:12:07;2.70;;;1.08;;
23868;SDS011;12115;47.128;15.422;2022-09-28T09:18:17;1.48;;;0.60;;
23868;SDS011;12115;47.128;15.422;2022-09-28T09:21:38;3.05;;;1.38;;
23868;SDS011;12115;47.128;15.422;2022-09-28T09:30:10;2.03;;;1.00;;
23868;SDS011;12115;47.128;15.422;2022-09-28T09:41:23;4.70;;;1.20;;
23868;SDS011;12115;47.128;15.422;2022-09-28T09:47:47;3.88;;;1.30;;
23868;SDS011;12115;47.128;15.422;2022-09-28T09:56:11;5.85;;;1.50;;
23868;SDS011;12115;47.128;15.422;2022-09-28T09:58:57;6.85;;;2.42;;
23868;SDS011;12115;47.128;15.422;2022-09-28T10:01:36;6.15;;;2.15;;
23868;SDS011;12115;47.128;15.422;2022-09-28T10:04:21;4.88;;;2.10;;
23868;SDS011;12115;47.128;15.422;2022-09-28T10:07:03;6.50;;;2.30;;
23868;SDS011;12115;47.128;15.422;2022-09-28T10:09:40;5.45;;;2.60;;
23868;SDS011;12115;47.128;15.422;2022-09-28T10:12:32;5.10;;;2.33;;
23868;SDS011;12115;47.128;15.422;2022-09-28T10:15:00;4.60;;;2.40;;
23868;SDS011;12115;47.128;15.422;2022-09-28T10:17:30;6.15;;;1.95;;
23868;SDS011;12115;47.128;15.422;2022-09-28T10:20:16;2.17;;;1.90;;
23868;SDS011;12115;47.128;15.422;2022-09-28T10:23:18;3.22;;;2.10;;
23868;SDS011;12115;47.128;15.422;2022-09-28T10:25:52;3.58;;;2.40;;
23868;SDS011;12115;47.128;15.422;2022-09-28T10:34:02;6.13;;;2.50;;
23868;SDS011;12115;47.128;15.422;2022-09-28T10:36:31;4.18;;;2.30;;
23868;SDS011;12115;47.128;15.422;2022-09-28T10:39:04;2.45;;;2.10;;
23868;SDS011;12115;47.128;15.422;2022-09-28T10:41:31;2.92;;;2.47;;
23868;SDS011;12115;47.128;15.422;2022-09-28T10:44:10;3.35;;;1.75;;
23868;SDS011;12115;47.128;15.422;2022-09-28T10:46:55;2.13;;;1.85;;
23868;SDS011;12115;47.128;15.422;2022-09-28T10:49:26;4.10;;;1.95;;
23868;SDS011;12115;47.128;15.422;2022-09-28T10:57:51;1.83;;;1.67;;
23868;SDS011;12115;47.128;15.422;2022-09-28T11:00:34;4.07;;;1.90;;
23868;SDS011;12115;47.128;15.422;2022-09-28T11:03:17;2.70;;;1.80;;
23868;SDS011;12115;47.128;15.422;2022-09-28T11:08:27;3.35;;;1.83;;
23868;SDS011;12115;47.128;15.422;2022-09-28T11:11:01;3.10;;;1.90;;
23868;SDS011;12115;47.128;15.422;2022-09-28T11:13:39;4.57;;;1.80;;
23868;SDS011;12115;47.128;15.422;2022-09-28T11:16:22;1.80;;;1.42;;
23868;SDS011;12115;47.128;15.422;2022-09-28T11:18:55;2.30;;;1.42;;
23868;SDS011;12115;47.128;15.422;2022-09-28T11:21:25;1.67;;;1.50;;
23868;SDS011;12115;47.128;15.422;2022-09-28T11:24:05;1.75;;;1.65;;
23868;SDS011;12115;47.128;15.422;2022-09-28T11:26:46;2.28;;;1.30;;
23868;SDS011;12115;47.128;15.422;2022-09-28T11:29:22;3.03;;;1.30;;
23868;SDS011;12115;47.128;15.422;2022-09-28T11:32:10;2.17;;;1.60;;
23868;SDS011;12115;47.128;15.422;2022-09-28T11:34:59;2.92;;;1.63;;
23868;SDS011;12115;47.128;15.422;2022-09-28T11:37:45;2.17;;;1.55;;
23868;SDS011;12115;47.128;15.422;2022-09-28T11:40:26;2.67;;;1.27;;
23868;SDS011;12115;47.128;15.422;2022-09-28T11:43:40;2.33;;;1.45;;
23868;SDS011;12115;47.128;15.422;2022-09-28T11:46:08;4.30;;;1.25;;
23868;SDS011;12115;47.128;15.422;2022-09-28T11:51:45;2.45;;;1.35;;
23868;SDS011;12115;47.128;15.422;2022-09-28T11:54:26;2.97;;;1.23;;
23868;SDS011;12115;47.128;15.422;2022-09-28T11:57:00;3.78;;;1.52;;
23868;SDS011;12115;47.128;15.422;2022-09-28T11:59:30;2.60;;;1.30;;
23868;SDS011;12115;47.128;15.422;2022-09-28T12:02:09;3.53;;;1.20;;
23868;SDS011;12115;47.128;15.422;2022-09-28T12:04:50;1.83;;;1.40;;
23868;SDS011;12115;47.128;15.422;2022-09-28T12:07:24;1.63;;;1.05;;
23868;SDS011;12115;47.128;15.422;2022-09-28T12:10:13;1.40;;;1.20;;
23868;SDS011;12115;47.128;15.422;2022-09-28T12:13:05;1.40;;;1.20;;
23868;SDS011;12115;47.128;15.422;2022-09-28T12:18:55;4.05;;;1.05;;
23868;SDS011;12115;47.128;15.422;2022-09-28T12:24:24;2.70;;;1.30;;
23868;SDS011;12115;47.128;15.422;2022-09-28T12:26:55;1.65;;;1.20;;
23868;SDS011;12115;47.128;15.422;2022-09-28T12:29:43;1.88;;;1.00;;
23868;SDS011;12115;47.128;15.422;2022-09-28T12:34:56;1.63;;;1.35;;
23868;SDS011;12115;47.128;15.422;2022-09-28T12:37:34;2.95;;;1.35;;
23868;SDS011;12115;47.128;15.422;2022-09-28T12:46:09;2.25;;;1.60;;
23868;SDS011;12115;47.128;15.422;2022-09-28T12:48:53;6.45;;;1.80;;
23868;SDS011;12115;47.128;15.422;2022-09-28T12:51:46;3.10;;;1.70;;
23868;SDS011;12115;47.128;15.422;2022-09-28T13:00:16;2.58;;;1.80;;
23868;SDS011;12115;47.128;15.422;2022-09-28T13:13:35;1.95;;;1.50;;
23868;SDS011;12115;47.128;15.422;2022-09-28T13:25:13;3.03;;;2.00;;
23868;SDS011;12115;47.128;15.422;2022-09-28T13:28:17;3.97;;;1.70;;
23868;SDS011;12115;47.128;15.422;2022-09-28T13:30:38;3.35;;;1.63;;
23868;SDS011;12115;47.128;15.422;2022-09-28T13:33:06;4.47;;;1.50;;
23868;SDS011;12115;47.128;15.422;2022-09-28T13:35:41;3.80;;;1.77;;
23868;SDS011;12115;47.128;15.422;2022-09-28T13:43:45;1.85;;;1.50;;
23868;SDS011;12115;47.128;15.422;2022-09-28T13:49:07;3.08;;;2.15;;
23868;SDS011;12115;47.128;15.422;2022-09-28T13:51:53;5.20;;;2.67;;
23868;SDS011;12115;47.128;15.422;2022-09-28T13:57:40;2.85;;;2.10;;
23868;SDS011;12115;47.128;15.422;2022-09-28T14:00:32;5.32;;;2.97;;
23868;SDS011;12115;47.128;15.422;2022-09-28T14:03:23;3.25;;;2.58;;
23868;SDS011;12115;47.128;15.422;2022-09-28T14:11:57;2.30;;;2.05;;
23868;SDS011;12115;47.128;15.422;2022-09-28T14:14:26;3.90;;;1.77;;
23868;SDS011;12115;47.128;15.422;2022-09-28T14:20:30;4.93;;;2.30;;
23868;SDS011;12115;47.128;15.422;2022-09-28T14:25:27;1.98;;;1.60;;
23868;SDS011;12115;47.128;15.422;2022-09-28T14:33:28;4.22;;;2.17;;
23868;SDS011;12115;47.128;15.422;2022-09-28T14:35:58;4.05;;;2.00;;
23868;SDS011;12115;47.128;15.422;2022-09-28T14:44:09;3.95;;;1.95;;
23868;SDS011;12115;47.128;15.422;2022-09-28T14:46:42;2.17;;;1.90;;
23868;SDS011;12115;47.128;15.422;2022-09-28T14:54:25;2.90;;;2.50;;
23868;SDS011;12115;47.128;15.422;2022-09-28T14:59:42;3.03;;;2.40;;
23868;SDS011;12115;47.128;15.422;2022-09-28T15:02:18;3.13;;;1.88;;
23868;SDS011;12115;47.128;15.422;2022-09-28T15:04:51;1.90;;;1.50;;
23868;SDS011;12115;47.128;15.422;2022-09-28T15:09:55;7.20;;;2.15;;
23868;SDS011;12115;47.128;15.422;2022-09-28T15:12:24;2.40;;;1.98;;
23868;SDS011;12115;47.128;15.422;2022-09-28T15:17:26;5.25;;;1.80;;
23868;SDS011;12115;47.128;15.422;2022-09-28T15:22:48;2.83;;;1.98;;
23868;SDS011;12115;47.128;15.422;2022-09-28T15:25:24;2.78;;;2.10;;
23868;SDS011;12115;47.128;15.422;2022-09-28T15:27:53;4.05;;;2.40;;
23868;SDS011;12115;47.128;15.422;2022-09-28T15:30:33;5.28;;;2.42;;
23868;SDS011;12115;47.128;15.422;2022-09-28T15:33:02;3.45;;;2.08;;
23868;SDS011;12115;47.128;15.422;2022-09-28T15:38:23;3.22;;;1.90;;
23868;SDS011;12115;47.128;15.422;2022-09-28T15:40:50;3.25;;;2.67;;
23868;SDS011;12115;47.128;15.422;2022-09-28T15:43:25;3.22;;;2.38;;
23868;SDS011;12115;47.128;15.422;2022-09-28T15:46:20;5.80;;;2.38;;
23868;SDS011;12115;47.128;15.422;2022-09-28T15:48:49;2.55;;;1.92;;
23868;SDS011;12115;47.128;15.422;2022-09-28T15:51:24;4.63;;;2.10;;
23868;SDS011;12115;47.128;15.422;2022-09-28T15:56:24;5.20;;;2.47;;
23868;SDS011;12115;47.128;15.422;2022-09-28T16:01:41;7.68;;;2.25;;
23868;SDS011;12115;47.128;15.422;2022-09-28T16:07:25;2.78;;;2.10;;
23868;SDS011;12115;47.128;15.422;2022-09-28T16:12:45;1.98;;;1.63;;
23868;SDS011;12115;47.128;15.422;2022-09-28T16:15:20;4.95;;;1.60;;
23868;SDS011;12115;47.128;15.422;2022-09-28T16:18:02;4.72;;;1.50;;
23868;SDS011;12115;47.128;15.422;2022-09-28T16:20:36;2.97;;;1.60;;
23868;SDS011;12115;47.128;15.422;2022-09-28T16:26:00;2.17;;;1.65;;
23868;SDS011;12115;47.128;15.422;2022-09-28T16:31:19;6.72;;;1.50;;
23868;SDS011;12115;47.128;15.422;2022-09-28T16:33:54;2.50;;;2.03;;
23868;SDS011;12115;47.128;15.422;2022-09-28T16:36:25;4.10;;;1.90;;
23868;SDS011;12115;47.128;15.422;2022-09-28T16:38:55;4.30;;;1.83;;
23868;SDS011;12115;47.128;15.422;2022-09-28T16:41:25;4.47;;;1.63;;
23868;SDS011;12115;47.128;15.422;2022-09-28T16:46:30;3.15;;;1.70;;
23868;SDS011;12115;47.128;15.422;2022-09-28T16:49:02;2.83;;;1.85;;
23868;SDS011;12115;47.128;15.422;2022-09-28T16:51:32;2.58;;;2.10;;
23868;SDS011;12115;47.128;15.422;2022-09-28T16:54:05;4.03;;;2.17;;
23868;SDS011;12115;47.128;15.422;2022-09-28T16:57:03;3.88;;;1.90;;
23868;SDS011;12115;47.128;15.422;2022-09-28T16:59:31;3.47;;;2.10;;
23868;SDS011;12115;47.128;15.422;2022-09-28T17:01:59;2.90;;;1.83;;
23868;SDS011;12115;47.128;15.422;2022-09-28T17:04:26;4.40;;;1.90;;
23868;SDS011;12115;47.128;15.422;2022-09-28T17:06:53;2.65;;;2.00;;
23868;SDS011;12115;47.128;15.422;2022-09-28T17:09:21;5.18;;;2.30;;
23868;SDS011;12115;47.128;15.422;2022-09-28T17:11:49;2.95;;;2.20;;
23868;SDS011;12115;47.128;15.422;2022-09-28T17:14:22;4.78;;;1.92;;
23868;SDS011;12115;47.128;15.422;2022-09-28T17:16:50;4.93;;;2.03;;
23868;SDS011;12115;47.128;15.422;2022-09-28T17:19:39;3.72;;;1.80;;
23868;SDS011;12115;47.128;15.422;2022-09-28T17:22:07;2.63;;;2.00;;
23868;SDS011;12115;47.128;15.422;2022-09-28T17:24:34;4.30;;;2.10;;
23868;SDS011;12115;47.128;15.422;2022-09-28T17:27:02;3.28;;;2.05;;
23868;SDS011;12115;47.128;15.422;2022-09-28T17:29:32;4.38;;;1.80;;
23868;SDS011;12115;47.128;15.422;2022-09-28T17:31:59;4.50;;;1.98;;
23868;SDS011;12115;47.128;15.422;2022-09-28T17:34:26;4.38;;;1.90;;
23868;SDS011;12115;47.128;15.422;2022-09-28T17:36:53;4.13;;;1.90;;
23868;SDS011;12115;47.128;15.422;2022-09-28T17:39:21;2.67;;;1.92;;
23868;SDS011;12115;47.128;15.422;2022-09-28T17:41:50;4.75;;;2.15;;
23868;SDS011;12115;47.128;15.422;2022-09-28T17:44:17;2.83;;;2.00;;
23868;SDS011;12115;47.128;15.422;2022-09-28T17:46:46;7.85;;;2.17;;
23868;SDS011;12115;47.128;15.422;2022-09-28T17:49:15;2.33;;;1.70;;
23868;SDS011;12115;47.128;15.422;2022-09-28T17:51:42;3.40;;;2.00;;
23868;SDS011;12115;47.128;15.422;2022-09-28T17:54:10;2.85;;;1.65;;
23868;SDS011;12115;47.128;15.422;2022-09-28T17:56:38;3.78;;;1.70;;
23868;SDS011;12115;47.128;15.422;2022-09-28T17:59:06;6.20;;;1.75;;
23868;SDS011;12115;47.128;15.422;2022-09-28T18:01:38;2.80;;;1.80;;
23868;SDS011;12115;47.128;15.422;2022-09-28T18:04:06;4.70;;;1.80;;
23868;SDS011;12115;47.128;15.422;2022-09-28T18:06:35;6.07;;;2.25;;
23868;SDS011;12115;47.128;15.422;2022-09-28T18:09:03;5.32;;;2.60;;
23868;SDS011;12115;47.128;15.422;2022-09-28T18:11:31;5.70;;;2.80;;
23868;SDS011;12115;47.128;15.422;2022-09-28T18:13:58;5.60;;;2.63;;
23868;SDS011;12115;47.128;15.422;2022-09-28T18:16:26;7.13;;;2.50;;
23868;SDS011;12115;47.128;15.422;2022-09-28T18:18:54;5.20;;;2.50;;
23868;SDS011;12115;47.128;15.422;2022-09-28T18:21:22;3.70;;;2.75;;
23868;SDS011;12115;47.128;15.422;2022-09-28T18:23:49;3.63;;;2.55;;
23868;SDS011;12115;47.128;15.422;2022-09-28T18:26:16;3.63;;;3.00;;
23868;SDS011;12115;47.128;15.422;2022-09-28T18:28:46;5.72;;;3.40;;
23868;SDS011;12115;47.128;15.422;2022-09-28T18:31:14;4.45;;;2.90;;
23868;SDS011;12115;47.128;15.422;2022-09-28T18:33:44;5.63;;;3.20;;
23868;SDS011;12115;47.128;15.422;2022-09-28T18:36:11;4.82;;;2.42;;
23868;SDS011;12115;47.128;15.422;2022-09-28T18:38:38;8.15;;;3.08;;
23868;SDS011;12115;47.128;15.422;2022-09-28T18:41:06;4.82;;;3.28;;
23868;SDS011;12115;47.128;15.422;2022-09-28T18:43:34;10.68;;;4.28;;
23868;SDS011;12115;47.128;15.422;2022-09-28T18:46:06;7.85;;;4.03;;
23868;SDS011;12115;47.128;15.422;2022-09-28T18:48:37;7.05;;;4.97;;
23868;SDS011;12115;47.128;15.422;2022-09-28T18:51:09;6.95;;;4.00;;
23868;SDS011;12115;47.128;15.422;2022-09-28T18:56:06;3.92;;;2.95;;
23868;SDS011;12115;47.128;15.422;2022-09-28T18:58:38;5.45;;;3.40;;
23868;SDS011;12115;47.128;15.422;2022-09-28T19:01:08;6.82;;;3.50;;